sensor_id;sensor_type;location;lat;lon;timestamp;pressure;altitude;pressure_sealevel;temperature;humidity
52343;BME280;38277;51.972;4.624;2023-05-16T00:03:05;102240.0;;;10.0;71.0
52343;BME280;38277;51.972;4.624;2023-05-16T00:07:30;102230.0;;;10.0;71.0
52343;BME280;38277;51.972;4.624;2023-05-16T00:12:03;102230.0;;;9.9;70.5
52343;BME280;38277;51.972;4.624;2023-05-16T00:16:23;102240.0;;;9.8;71.0
52343;BME280;38277;51.972;4.624;2023-05-16T00:20:47;102230.0;;;9.8;71.0
52343;BME280;38277;51.972;4.624;2023-05-16T00:25:09;102230.0;;;9.8;71.0
52343;BME280;38277;51.972;4.624;2023-05-16T00:30:04;102230.0;;;9.7;71.0
52343;BME280;38277;51.972;4.624;2023-05-16T00:34:28;102230.0;;;9.7;70.5
52343;BME280;38277;51.972;4.624;2023-05-16T00:38:46;102240.0;;;9.6;70.5
52343;BME280;38277;51.972;4.624;2023-05-16T00:43:36;102230.0;;;9.6;70.5
52343;BME280;38277;51.972;4.624;2023-05-16T00:47:49;102250.0;;;9.6;70.5
52343;BME280;38277;51.972;4.624;2023-05-16T00:52:23;102250.0;;;9.5;70.5
52343;BME280;38277;51.972;4.624;2023-05-16T00:56:43;102240.0;;;9.5;70.5
52343;BME280;38277;51.972;4.624;2023-05-16T01:01:36;102250.0;;;9.5;70.5
52343;BME280;38277;51.972;4.624;2023-05-16T01:05:56;102250.0;;;9.4;70.5
52343;BME280;38277;51.972;4.624;2023-05-16T01:10:15;102230.0;;;9.4;70.5
52343;BME280;38277;51.972;4.624;2023-05-16T01:15:11;102240.0;;;9.4;70.5
52343;BME280;38277;51.972;4.624;2023-05-16T01:19:19;102240.0;;;9.3;70.5
52343;BME280;38277;51.972;4.624;2023-05-16T01:23:59;102240.0;;;9.3;70.5
52343;BME280;38277;51.972;4.624;2023-05-16T01:33:02;102240.0;;;9.3;70.5
52343;BME280;38277;51.972;4.624;2023-05-16T01:37:47;102240.0;;;9.3;70.5
52343;BME280;38277;51.972;4.624;2023-05-16T01:42:13;102240.0;;;9.2;71.0
52343;BME280;38277;51.972;4.624;2023-05-16T01:46:16;102240.0;;;9.2;71.0
52343;BME280;38277;51.972;4.624;2023-05-16T01:50:44;102240.0;;;9.2;71.5
52343;BME280;38277;51.972;4.624;2023-05-16T01:55:23;102240.0;;;9.2;71.5
52343;BME280;38277;51.972;4.624;2023-05-16T01:59:49;102250.0;;;9.3;71.5
52343;BME280;38277;51.972;4.624;2023-05-16T02:08:59;102250.0;;;9.2;71.5
52343;BME280;38277;51.972;4.624;2023-05-16T02:13:24;102260.0;;;9.2;72.0
52343;BME280;38277;51.972;4.624;2023-05-16T02:17:45;102250.0;;;9.3;72.0
52343;BME280;38277;51.972;4.624;2023-05-16T02:22:29;102250.0;;;9.3;72.0
52343;BME280;38277;51.972;4.624;2023-05-16T02:26:50;102260.0;;;9.3;72.0
52343;BME280;38277;51.972;4.624;2023-05-16T02:31:32;102260.0;;;9.3;71.5
52343;BME280;38277;51.972;4.624;2023-05-16T02:35:43;102260.0;;;9.3;71.5
52343;BME280;38277;51.972;4.624;2023-05-16T02:40:22;102260.0;;;9.2;71.5
52343;BME280;38277;51.972;4.624;2023-05-16T02:44:54;102260.0;;;9.2;72.0
52343;BME280;38277;51.972;4.624;2023-05-16T02:49:14;102270.0;;;9.2;72.0
52343;BME280;38277;51.972;4.624;2023-05-16T02:54:06;102280.0;;;9.2;72.0
52343;BME280;38277;51.972;4.624;2023-05-16T02:58:25;102270.0;;;9.1;72.0
52343;BME280;38277;51.972;4.624;2023-05-16T03:02:59;102280.0;;;9.1;72.0
52343;BME280;38277;51.972;4.624;2023-05-16T03:11:47;102280.0;;;9.3;72.0
52343;BME280;38277;51.972;4.624;2023-05-16T03:16:35;102270.0;;;9.3;71.5
52343;BME280;38277;51.972;4.624;2023-05-16T03:21:05;102290.0;;;9.3;71.5
52343;BME280;38277;51.972;4.624;2023-05-16T03:25:10;102290.0;;;9.2;71.5
52343;BME280;38277;51.972;4.624;2023-05-16T03:29:58;102290.0;;;9.2;71.5
52343;BME280;38277;51.972;4.624;2023-05-16T03:34:37;102300.0;;;9.2;71.5
52343;BME280;38277;51.972;4.624;2023-05-16T03:39:05;102290.0;;;9.3;72.0
52343;BME280;38277;51.972;4.624;2023-05-16T03:47:50;102290.0;;;9.4;72.0
52343;BME280;38277;51.972;4.624;2023-05-16T03:52:13;102290.0;;;9.4;71.5
52343;BME280;38277;51.972;4.624;2023-05-16T03:56:52;102290.0;;;9.4;71.5
52343;BME280;38277;51.972;4.624;2023-05-16T04:01:08;102300.0;;;9.4;71.5
52343;BME280;38277;51.972;4.624;2023-05-16T04:06:27;102310.0;;;9.4;71.5
52343;BME280;38277;51.972;4.624;2023-05-16T04:10:14;102310.0;;;9.4;71.5
52343;BME280;38277;51.972;4.624;2023-05-16T04:15:20;102310.0;;;9.5;71.5
52343;BME280;38277;51.972;4.624;2023-05-16T04:19:10;102310.0;;;9.5;71.5
52343;BME280;38277;51.972;4.624;2023-05-16T04:24:03;102310.0;;;9.6;71.5
52343;BME280;38277;51.972;4.624;2023-05-16T04:28:26;102330.0;;;9.6;71.5
52343;BME280;38277;51.972;4.624;2023-05-16T04:32:44;102320.0;;;9.5;71.5
52343;BME280;38277;51.972;4.624;2023-05-16T04:37:16;102330.0;;;9.5;71.5
52343;BME280;38277;51.972;4.624;2023-05-16T04:41:54;102340.0;;;9.5;71.5
52343;BME280;38277;51.972;4.624;2023-05-16T04:50:46;102340.0;;;9.5;71.5
52343;BME280;38277;51.972;4.624;2023-05-16T04:55:18;102330.0;;;9.6;71.5
52343;BME280;38277;51.972;4.624;2023-05-16T04:59:58;102330.0;;;9.8;71.5
52343;BME280;38277;51.972;4.624;2023-05-16T05:09:01;102340.0;;;10.5;70.5
52343;BME280;38277;51.972;4.624;2023-05-16T05:13:20;102350.0;;;10.9;69.5
52343;BME280;38277;51.972;4.624;2023-05-16T05:18:04;102350.0;;;11.0;68.0
52343;BME280;38277;51.972;4.624;2023-05-16T05:27:03;102350.0;;;11.0;67.0
52343;BME280;38277;51.972;4.624;2023-05-16T05:31:08;102360.0;;;11.0;67.0
52343;BME280;38277;51.972;4.624;2023-05-16T05:36:05;102360.0;;;11.0;67.0
52343;BME280;38277;51.972;4.624;2023-05-16T05:40:30;102360.0;;;11.0;66.5
52343;BME280;38277;51.972;4.624;2023-05-16T05:45:02;102360.0;;;11.1;66.5
52343;BME280;38277;51.972;4.624;2023-05-16T05:49:35;102360.0;;;11.1;66.0
52343;BME280;38277;51.972;4.624;2023-05-16T05:53:43;102360.0;;;11.2;66.0
52343;BME280;38277;51.972;4.624;2023-05-16T05:58:32;102370.0;;;11.3;65.5
52343;BME280;38277;51.972;4.624;2023-05-16T06:02:38;102370.0;;;11.4;65.5
52343;BME280;38277;51.972;4.624;2023-05-16T06:07:22;102370.0;;;11.7;65.0
52343;BME280;38277;51.972;4.624;2023-05-16T06:12:13;102370.0;;;12.1;64.0
52343;BME280;38277;51.972;4.624;2023-05-16T06:16:11;102370.0;;;12.2;63.5
52343;BME280;38277;51.972;4.624;2023-05-16T06:21:00;102380.0;;;12.3;63.0
52343;BME280;38277;51.972;4.624;2023-05-16T06:25:12;102380.0;;;12.3;63.0
52343;BME280;38277;51.972;4.624;2023-05-16T06:29:49;102390.0;;;12.2;63.0
52343;BME280;38277;51.972;4.624;2023-05-16T06:34:08;102380.0;;;12.1;63.0
52343;BME280;38277;51.972;4.624;2023-05-16T06:38:56;102390.0;;;12.1;63.0
52343;BME280;38277;51.972;4.624;2023-05-16T06:43:10;102390.0;;;12.1;62.5
52343;BME280;38277;51.972;4.624;2023-05-16T06:52:15;102400.0;;;12.3;61.0
52343;BME280;38277;51.972;4.624;2023-05-16T06:57:07;102400.0;;;12.3;60.5
52343;BME280;38277;51.972;4.624;2023-05-16T07:01:17;102400.0;;;12.5;60.5
52343;BME280;38277;51.972;4.624;2023-05-16T07:05:41;102400.0;;;12.7;59.0
52343;BME280;38277;51.972;4.624;2023-05-16T07:14:40;102410.0;;;12.7;58.0
52343;BME280;38277;51.972;4.624;2023-05-16T07:19:17;102410.0;;;12.8;59.0
52343;BME280;38277;51.972;4.624;2023-05-16T07:28:34;102420.0;;;12.7;58.0
52343;BME280;38277;51.972;4.624;2023-05-16T07:32:45;102420.0;;;12.8;58.5
52343;BME280;38277;51.972;4.624;2023-05-16T07:37:37;102420.0;;;13.0;58.0
52343;BME280;38277;51.972;4.624;2023-05-16T07:42:05;102420.0;;;13.2;57.0
52343;BME280;38277;51.972;4.624;2023-05-16T07:46:09;102420.0;;;13.3;56.0
52343;BME280;38277;51.972;4.624;2023-05-16T07:50:46;102430.0;;;13.3;56.0
52343;BME280;38277;51.972;4.624;2023-05-16T07:55:48;102420.0;;;13.3;56.0
52343;BME280;38277;51.972;4.624;2023-05-16T08:00:03;102420.0;;;13.6;55.5
52343;BME280;38277;51.972;4.624;2023-05-16T08:04:14;102410.0;;;13.8;54.0
52343;BME280;38277;51.972;4.624;2023-05-16T08:08:40;102430.0;;;13.7;53.5
52343;BME280;38277;51.972;4.624;2023-05-16T08:13:21;102430.0;;;13.7;54.0
52343;BME280;38277;51.972;4.624;2023-05-16T08:17:44;102420.0;;;13.8;54.0
52343;BME280;38277;51.972;4.624;2023-05-16T08:22:26;102430.0;;;13.9;53.0
52343;BME280;38277;51.972;4.624;2023-05-16T08:31:18;102430.0;;;14.0;52.0
52343;BME280;38277;51.972;4.624;2023-05-16T08:36:08;102430.0;;;14.0;52.5
52343;BME280;38277;51.972;4.624;2023-05-16T08:40:18;102430.0;;;14.1;52.0
52343;BME280;38277;51.972;4.624;2023-05-16T08:44:52;102440.0;;;14.3;52.5
52343;BME280;38277;51.972;4.624;2023-05-16T08:49:24;102440.0;;;14.4;51.0
52343;BME280;38277;51.972;4.624;2023-05-16T08:53:54;102440.0;;;14.4;51.0
52343;BME280;38277;51.972;4.624;2023-05-16T08:58:14;102440.0;;;14.8;51.0
52343;BME280;38277;51.972;4.624;2023-05-16T09:07:09;102440.0;;;15.2;49.5
52343;BME280;38277;51.972;4.624;2023-05-16T09:11:58;102450.0;;;15.3;49.0
52343;BME280;38277;51.972;4.624;2023-05-16T09:16:27;102430.0;;;15.3;47.0
52343;BME280;38277;51.972;4.624;2023-05-16T09:21:00;102440.0;;;15.2;48.0
52343;BME280;38277;51.972;4.624;2023-05-16T09:25:29;102430.0;;;15.6;48.0
52343;BME280;38277;51.972;4.624;2023-05-16T09:30:06;102450.0;;;16.0;46.0
52343;BME280;38277;51.972;4.624;2023-05-16T09:34:21;102450.0;;;16.0;46.0
52343;BME280;38277;51.972;4.624;2023-05-16T09:38:42;102450.0;;;16.1;45.0
52343;BME280;38277;51.972;4.624;2023-05-16T09:43:24;102460.0;;;16.0;44.5
52343;BME280;38277;51.972;4.624;2023-05-16T09:47:41;102450.0;;;15.9;45.5
52343;BME280;38277;51.972;4.624;2023-05-16T09:52:25;102460.0;;;16.0;46.0
52343;BME280;38277;51.972;4.624;2023-05-16T09:56:47;102460.0;;;16.0;45.0
52343;BME280;38277;51.972;4.624;2023-05-16T10:01:28;102460.0;;;16.2;43.5
52343;BME280;38277;51.972;4.624;2023-05-16T10:10:22;102470.0;;;16.7;43.5
52343;BME280;38277;51.972;4.624;2023-05-16T10:15:09;102450.0;;;16.6;43.5
52343;BME280;38277;51.972;4.624;2023-05-16T10:19:16;102450.0;;;16.7;43.5
52343;BME280;38277;51.972;4.624;2023-05-16T10:24:02;102460.0;;;16.7;43.5
52343;BME280;38277;51.972;4.624;2023-05-16T10:28:28;102450.0;;;16.6;43.5
52343;BME280;38277;51.972;4.624;2023-05-16T10:32:40;102460.0;;;16.7;42.5
52343;BME280;38277;51.972;4.624;2023-05-16T10:37:30;102440.0;;;16.8;42.5
52343;BME280;38277;51.972;4.624;2023-05-16T10:41:42;102450.0;;;17.2;42.0
52343;BME280;38277;51.972;4.624;2023-05-16T10:46:40;102440.0;;;17.4;41.0
52343;BME280;38277;51.972;4.624;2023-05-16T10:51:02;102430.0;;;17.9;41.0
52343;BME280;38277;51.972;4.624;2023-05-16T10:55:34;102440.0;;;18.5;39.5
52343;BME280;38277;51.972;4.624;2023-05-16T11:00:07;102440.0;;;18.8;39.0
52343;BME280;38277;51.972;4.624;2023-05-16T11:04:21;102430.0;;;19.4;37.0
52343;BME280;38277;51.972;4.624;2023-05-16T11:09:17;102430.0;;;19.9;35.5
52343;BME280;38277;51.972;4.624;2023-05-16T11:13:23;102440.0;;;20.3;34.0
52343;BME280;38277;51.972;4.624;2023-05-16T11:18:15;102430.0;;;20.8;34.0
52343;BME280;38277;51.972;4.624;2023-05-16T11:22:38;102450.0;;;21.4;33.5
52343;BME280;38277;51.972;4.624;2023-05-16T11:26:57;102430.0;;;21.9;33.0
52343;BME280;38277;51.972;4.624;2023-05-16T11:31:20;102430.0;;;21.9;32.5
52343;BME280;38277;51.972;4.624;2023-05-16T11:35:59;102430.0;;;21.8;32.0
52343;BME280;38277;51.972;4.624;2023-05-16T11:40:26;102440.0;;;22.1;31.5
52343;BME280;38277;51.972;4.624;2023-05-16T11:45:05;102430.0;;;22.6;30.0
52343;BME280;38277;51.972;4.624;2023-05-16T11:49:26;102440.0;;;23.0;29.0
52343;BME280;38277;51.972;4.624;2023-05-16T11:53:40;102440.0;;;23.2;29.0
52343;BME280;38277;51.972;4.624;2023-05-16T12:02:42;102440.0;;;22.4;29.0
52343;BME280;38277;51.972;4.624;2023-05-16T12:07:34;102430.0;;;22.8;29.0
52343;BME280;38277;51.972;4.624;2023-05-16T12:16:10;102440.0;;;23.1;28.0
52343;BME280;38277;51.972;4.624;2023-05-16T12:21:05;102430.0;;;23.1;27.0
52343;BME280;38277;51.972;4.624;2023-05-16T12:25:26;102430.0;;;23.3;28.0
52343;BME280;38277;51.972;4.624;2023-05-16T12:29:57;102430.0;;;25.1;26.5
52343;BME280;38277;51.972;4.624;2023-05-16T12:38:44;102430.0;;;27.3;22.5
52343;BME280;38277;51.972;4.624;2023-05-16T12:43:28;102430.0;;;27.7;22.5
52343;BME280;38277;51.972;4.624;2023-05-16T12:47:44;102420.0;;;28.5;22.0
52343;BME280;38277;51.972;4.624;2023-05-16T12:52:27;102420.0;;;28.9;21.0
52343;BME280;38277;51.972;4.624;2023-05-16T12:56:45;102430.0;;;29.4;20.5
52343;BME280;38277;51.972;4.624;2023-05-16T13:01:49;102430.0;;;29.2;19.5
52343;BME280;38277;51.972;4.624;2023-05-16T13:06:04;102420.0;;;29.4;19.5
52343;BME280;38277;51.972;4.624;2023-05-16T13:10:41;102420.0;;;29.7;20.0
52343;BME280;38277;51.972;4.624;2023-05-16T13:15:08;102430.0;;;30.6;18.0
52343;BME280;38277;51.972;4.624;2023-05-16T13:19:55;102420.0;;;30.6;18.5
52343;BME280;38277;51.972;4.624;2023-05-16T13:24:08;102420.0;;;28.6;20.5
52343;BME280;38277;51.972;4.624;2023-05-16T13:28:33;102420.0;;;28.7;20.5
52343;BME280;38277;51.972;4.624;2023-05-16T13:32:51;102420.0;;;29.6;20.0
52343;BME280;38277;51.972;4.624;2023-05-16T13:37:47;102420.0;;;30.4;19.5
52343;BME280;38277;51.972;4.624;2023-05-16T13:42:02;102420.0;;;30.9;18.5
52343;BME280;38277;51.972;4.624;2023-05-16T13:46:13;102430.0;;;31.6;18.0
52343;BME280;38277;51.972;4.624;2023-05-16T13:50:41;102430.0;;;32.0;17.5
52343;BME280;38277;51.972;4.624;2023-05-16T13:55:13;102430.0;;;32.1;17.0
52343;BME280;38277;51.972;4.624;2023-05-16T14:04:26;102430.0;;;32.0;17.0
52343;BME280;38277;51.972;4.624;2023-05-16T14:09:03;102430.0;;;30.9;18.5
52343;BME280;38277;51.972;4.624;2023-05-16T14:13:30;102430.0;;;31.5;18.0
52343;BME280;38277;51.972;4.624;2023-05-16T14:17:45;102420.0;;;31.9;17.5
52343;BME280;38277;51.972;4.624;2023-05-16T14:22:22;102420.0;;;32.4;17.0
52343;BME280;38277;51.972;4.624;2023-05-16T14:26:50;102420.0;;;32.9;16.5
52343;BME280;38277;51.972;4.624;2023-05-16T14:31:12;102430.0;;;33.3;16.0
52343;BME280;38277;51.972;4.624;2023-05-16T14:40:32;102430.0;;;32.9;15.5
52343;BME280;38277;51.972;4.624;2023-05-16T14:44:53;102430.0;;;33.2;16.0
52343;BME280;38277;51.972;4.624;2023-05-16T14:49:27;102410.0;;;33.2;16.5
52343;BME280;38277;51.972;4.624;2023-05-16T14:53:40;102420.0;;;33.2;16.5
52343;BME280;38277;51.972;4.624;2023-05-16T14:58:42;102420.0;;;32.3;17.0
52343;BME280;38277;51.972;4.624;2023-05-16T15:02:54;102440.0;;;31.9;17.5
52343;BME280;38277;51.972;4.624;2023-05-16T15:07:40;102430.0;;;32.2;17.0
52343;BME280;38277;51.972;4.624;2023-05-16T15:11:59;102440.0;;;31.8;17.0
52343;BME280;38277;51.972;4.624;2023-05-16T15:16:38;102440.0;;;30.5;18.0
52343;BME280;38277;51.972;4.624;2023-05-16T15:20:59;102440.0;;;28.4;20.5
52343;BME280;38277;51.972;4.624;2023-05-16T15:25:33;102450.0;;;26.4;23.0
52343;BME280;38277;51.972;4.624;2023-05-16T15:30:03;102460.0;;;25.0;26.5
52343;BME280;38277;51.972;4.624;2023-05-16T15:34:36;102460.0;;;24.9;27.5
52343;BME280;38277;51.972;4.624;2023-05-16T15:39:02;102460.0;;;25.6;27.0
52343;BME280;38277;51.972;4.624;2023-05-16T15:43:37;102460.0;;;27.0;26.0
52343;BME280;38277;51.972;4.624;2023-05-16T15:47:50;102470.0;;;28.2;25.0
52343;BME280;38277;51.972;4.624;2023-05-16T15:56:44;102480.0;;;25.3;28.0
52343;BME280;38277;51.972;4.624;2023-05-16T16:01:32;102480.0;;;23.0;31.5
52343;BME280;38277;51.972;4.624;2023-05-16T16:15:02;102500.0;;;19.7;39.0
52343;BME280;38277;51.972;4.624;2023-05-16T16:19:30;102490.0;;;19.4;39.5
52343;BME280;38277;51.972;4.624;2023-05-16T16:24:03;102500.0;;;19.1;40.5
52343;BME280;38277;51.972;4.624;2023-05-16T16:33:00;102500.0;;;18.2;42.5
52343;BME280;38277;51.972;4.624;2023-05-16T16:37:09;102510.0;;;17.8;43.5
52343;BME280;38277;51.972;4.624;2023-05-16T16:46:36;102510.0;;;18.0;43.5
52343;BME280;38277;51.972;4.624;2023-05-16T16:50:55;102510.0;;;17.9;43.5
52343;BME280;38277;51.972;4.624;2023-05-16T16:55:25;102510.0;;;17.8;44.0
52343;BME280;38277;51.972;4.624;2023-05-16T17:00:05;102510.0;;;17.8;44.5
52343;BME280;38277;51.972;4.624;2023-05-16T17:04:33;102510.0;;;17.8;44.5
52343;BME280;38277;51.972;4.624;2023-05-16T17:09:05;102520.0;;;17.5;45.5
52343;BME280;38277;51.972;4.624;2023-05-16T17:13:18;102520.0;;;17.3;46.5
52343;BME280;38277;51.972;4.624;2023-05-16T17:18:02;102510.0;;;17.2;47.0
52343;BME280;38277;51.972;4.624;2023-05-16T17:22:16;102530.0;;;16.9;47.5
52343;BME280;38277;51.972;4.624;2023-05-16T17:27:04;102550.0;;;16.5;48.0
52343;BME280;38277;51.972;4.624;2023-05-16T17:31:16;102550.0;;;16.3;48.5
52343;BME280;38277;51.972;4.624;2023-05-16T17:35:41;102550.0;;;16.1;49.5
52343;BME280;38277;51.972;4.624;2023-05-16T17:40:29;102550.0;;;16.1;50.0
52343;BME280;38277;51.972;4.624;2023-05-16T17:45:07;102550.0;;;16.1;49.5
52343;BME280;38277;51.972;4.624;2023-05-16T17:49:36;102550.0;;;16.2;49.5
52343;BME280;38277;51.972;4.624;2023-05-16T17:54:19;102550.0;;;16.1;50.0
52343;BME280;38277;51.972;4.624;2023-05-16T17:58:28;102550.0;;;16.0;50.0
52343;BME280;38277;51.972;4.624;2023-05-16T18:02:52;102570.0;;;15.9;50.5
52343;BME280;38277;51.972;4.624;2023-05-16T18:07:37;102570.0;;;15.8;50.5
52343;BME280;38277;51.972;4.624;2023-05-16T18:11:48;102560.0;;;15.8;50.5
52343;BME280;38277;51.972;4.624;2023-05-16T18:16:09;102570.0;;;16.0;50.5
52343;BME280;38277;51.972;4.624;2023-05-16T18:21:00;102580.0;;;15.9;50.5
52343;BME280;38277;51.972;4.624;2023-05-16T18:25:37;102580.0;;;15.6;51.0
52343;BME280;38277;51.972;4.624;2023-05-16T18:30:17;102580.0;;;15.3;51.0
52343;BME280;38277;51.972;4.624;2023-05-16T18:34:27;102590.0;;;15.0;51.5
52343;BME280;38277;51.972;4.624;2023-05-16T18:38:50;102600.0;;;14.8;52.5
52343;BME280;38277;51.972;4.624;2023-05-16T18:47:42;102600.0;;;14.4;54.5
52343;BME280;38277;51.972;4.624;2023-05-16T18:52:16;102610.0;;;14.3;55.0
52343;BME280;38277;51.972;4.624;2023-05-16T18:57:06;102600.0;;;14.1;55.5
52343;BME280;38277;51.972;4.624;2023-05-16T19:01:15;102620.0;;;14.0;56.5
52343;BME280;38277;51.972;4.624;2023-05-16T19:05:45;102620.0;;;13.9;57.0
52343;BME280;38277;51.972;4.624;2023-05-16T19:10:37;102630.0;;;13.8;57.5
52343;BME280;38277;51.972;4.624;2023-05-16T19:15:03;102640.0;;;13.8;57.5
52343;BME280;38277;51.972;4.624;2023-05-16T19:23:41;102640.0;;;13.6;58.5
52343;BME280;38277;51.972;4.624;2023-05-16T19:28:09;102640.0;;;13.5;59.0
52343;BME280;38277;51.972;4.624;2023-05-16T19:32:54;102650.0;;;13.4;59.5
52343;BME280;38277;51.972;4.624;2023-05-16T19:37:30;102650.0;;;13.3;60.5
52343;BME280;38277;51.972;4.624;2023-05-16T19:41:42;102650.0;;;13.1;60.5
52343;BME280;38277;51.972;4.624;2023-05-16T19:46:23;102650.0;;;13.1;61.0
52343;BME280;38277;51.972;4.624;2023-05-16T19:50:51;102650.0;;;13.0;61.5
52343;BME280;38277;51.972;4.624;2023-05-16T19:55:27;102650.0;;;12.8;62.0
52343;BME280;38277;51.972;4.624;2023-05-16T20:00:03;102660.0;;;12.8;62.5
52343;BME280;38277;51.972;4.624;2023-05-16T20:04:22;102670.0;;;12.7;63.0
52343;BME280;38277;51.972;4.624;2023-05-16T20:08:56;102670.0;;;12.6;63.0
52343;BME280;38277;51.972;4.624;2023-05-16T20:13:37;102670.0;;;12.6;63.5
52343;BME280;38277;51.972;4.624;2023-05-16T20:17:40;102680.0;;;12.6;63.5
52343;BME280;38277;51.972;4.624;2023-05-16T20:22:27;102660.0;;;12.5;64.0
52343;BME280;38277;51.972;4.624;2023-05-16T20:31:30;102680.0;;;12.4;65.0
52343;BME280;38277;51.972;4.624;2023-05-16T20:35:55;102680.0;;;12.4;65.0
52343;BME280;38277;51.972;4.624;2023-05-16T20:40:37;102680.0;;;12.3;65.0
52343;BME280;38277;51.972;4.624;2023-05-16T20:49:14;102680.0;;;12.2;65.5
52343;BME280;38277;51.972;4.624;2023-05-16T20:54:06;102690.0;;;12.2;66.5
52343;BME280;38277;51.972;4.624;2023-05-16T20:58:28;102700.0;;;12.1;67.0
52343;BME280;38277;51.972;4.624;2023-05-16T21:02:53;102700.0;;;12.1;67.0
52343;BME280;38277;51.972;4.624;2023-05-16T21:07:18;102700.0;;;12.1;67.0
52343;BME280;38277;51.972;4.624;2023-05-16T21:12:04;102710.0;;;12.0;67.0
52343;BME280;38277;51.972;4.624;2023-05-16T21:16:20;102710.0;;;12.0;67.5
52343;BME280;38277;51.972;4.624;2023-05-16T21:25:26;102690.0;;;11.9;68.5
52343;BME280;38277;51.972;4.624;2023-05-16T21:29:43;102690.0;;;11.9;68.5
52343;BME280;38277;51.972;4.624;2023-05-16T21:34:08;102690.0;;;11.8;69.0
52343;BME280;38277;51.972;4.624;2023-05-16T21:39:05;102700.0;;;11.8;69.5
52343;BME280;38277;51.972;4.624;2023-05-16T21:43:10;102700.0;;;11.8;69.5
52343;BME280;38277;51.972;4.624;2023-05-16T21:47:40;102700.0;;;11.7;70.0
52343;BME280;38277;51.972;4.624;2023-05-16T21:52:24;102710.0;;;11.7;70.5
52343;BME280;38277;51.972;4.624;2023-05-16T21:56:41;102700.0;;;11.6;71.0
52343;BME280;38277;51.972;4.624;2023-05-16T22:01:17;102710.0;;;11.6;71.0
52343;BME280;38277;51.972;4.624;2023-05-16T22:06:03;102720.0;;;11.6;71.5
52343;BME280;38277;51.972;4.624;2023-05-16T22:10:14;102720.0;;;11.6;71.5
52343;BME280;38277;51.972;4.624;2023-05-16T22:14:52;102720.0;;;11.6;72.0
52343;BME280;38277;51.972;4.624;2023-05-16T22:19:28;102720.0;;;11.5;72.0
52343;BME280;38277;51.972;4.624;2023-05-16T22:28:08;102720.0;;;11.5;72.5
52343;BME280;38277;51.972;4.624;2023-05-16T22:32:46;102720.0;;;11.5;73.0
52343;BME280;38277;51.972;4.624;2023-05-16T22:37:25;102710.0;;;11.4;73.0
52343;BME280;38277;51.972;4.624;2023-05-16T22:41:50;102720.0;;;11.4;73.0
52343;BME280;38277;51.972;4.624;2023-05-16T22:46:08;102720.0;;;11.4;73.0
52343;BME280;38277;51.972;4.624;2023-05-16T22:50:58;102720.0;;;11.4;73.5
52343;BME280;38277;51.972;4.624;2023-05-16T22:55:30;102730.0;;;11.3;73.5
52343;BME280;38277;51.972;4.624;2023-05-16T23:04:29;102730.0;;;11.3;74.0
52343;BME280;38277;51.972;4.624;2023-05-16T23:09:02;102720.0;;;11.3;74.5
52343;BME280;38277;51.972;4.624;2023-05-16T23:18:07;102740.0;;;11.2;75.0
52343;BME280;38277;51.972;4.624;2023-05-16T23:22:16;102750.0;;;11.2;75.5
52343;BME280;38277;51.972;4.624;2023-05-16T23:27:20;102740.0;;;11.2;76.0
52343;BME280;38277;51.972;4.624;2023-05-16T23:31:32;102750.0;;;11.1;76.0
52343;BME280;38277;51.972;4.624;2023-05-16T23:36:08;102740.0;;;11.1;76.0
52343;BME280;38277;51.972;4.624;2023-05-16T23:40:26;102740.0;;;11.1;76.0
52343;BME280;38277;51.972;4.624;2023-05-16T23:49:15;102730.0;;;11.1;76.5
52343;BME280;38277;51.972;4.624;2023-05-16T23:53:53;102730.0;;;11.1;77.0
52343;BME280;38277;51.972;4.624;2023-05-16T23:58:13;102730.0;;;11.1;77.0
